Ansonville, North Carolina
Current Conditions -  °F | °C
As of 11:35 AM on Saturday 22 Nov 2014 (Local Time) from KAFP Reporting Station
Clear Clear  
Wind Chill: 47°   Ceiling: Unl
Heat Index: 47°   Visibility: 10mi
Dew Point: 18°   Wind: 0mph
Humidity: 31%   Direction: NA
Pressure: 30.53"   Gusts: NA
Location:  35.1°N, 80.11°W
Report Text: KAFP 221635Z AUTO 00000KT 10SM CLR 09/M08 A3053 RMK AO2 T00861078
Loading
Personal Weather Stations






























Interactive Weather Map New forecast layout! Learn more

10-Day Weather Forecast

Advertisements
Track Severe Weather on mobile